Peytona, West Virginia
Current Conditions -  °F | °C
As of 10:54 PM on Thursday 27 Nov 2014 (Local Time) from KCRW Reporting Station
Light Snow Light Snow  
Wind Chill: 22°   Ceiling: 1800
Heat Index: 30°   Visibility: 2mi
Dew Point: 27°   Wind: 9mph
Humidity: 88%   Direction: 260°W
Pressure: 30.33"   Gusts: NA
Location:  38.14°N, 81.68°W
Report Text: KCRW 280354Z 26008KT 2SM -SN BR SCT009 BKN018 OVC035 M01/M03 A3033 RMK AO2 SLP279 P0000 T10111028
Loading
Personal Weather Stations






























Interactive Weather Map New forecast layout! Learn more

10-Day Weather Forecast

Advertisements
Track Severe Weather on mobile